createdAt,value
2022-11-08T00:00:26.744Z,15.60
2022-11-08T00:12:27.201Z,14.30
2022-11-08T00:24:27.636Z,12.70
2022-11-08T00:36:28.075Z,16.30
2022-11-08T00:48:28.574Z,15.80
2022-11-08T01:00:28.980Z,16.60
2022-11-08T01:12:29.424Z,15.50
2022-11-08T01:24:29.909Z,15.10
2022-11-08T01:36:30.365Z,14.10
2022-11-08T01:48:30.795Z,13.70
2022-11-08T02:00:32.071Z,16.40
2022-11-08T02:12:31.754Z,15.70
2022-11-08T02:24:32.186Z,17.20
2022-11-08T02:36:32.601Z,28.10
2022-11-08T02:48:33.045Z,20.20
2022-11-08T03:00:33.517Z,21.90
2022-11-08T03:12:33.992Z,22.80
2022-11-08T03:24:34.392Z,17.00
2022-11-08T03:36:34.850Z,14.40
2022-11-08T03:48:35.341Z,15.60
2022-11-08T04:00:35.757Z,16.90
2022-11-08T04:12:36.250Z,18.10
2022-11-08T04:24:36.714Z,17.60
2022-11-08T04:36:37.140Z,17.40
2022-11-08T04:48:37.602Z,14.90
2022-11-08T05:00:38.041Z,16.30
2022-11-08T05:12:38.483Z,19.30
2022-11-08T05:24:38.976Z,16.10
2022-11-08T05:36:39.428Z,17.30
2022-11-08T05:48:39.836Z,18.50
2022-11-08T06:00:40.300Z,21.60
2022-11-08T06:12:40.782Z,24.00
2022-11-08T06:24:41.212Z,24.70
2022-11-08T06:36:41.631Z,21.30
2022-11-08T06:48:42.105Z,28.60
2022-11-08T07:00:42.521Z,30.20
2022-11-08T07:12:43.010Z,33.20
2022-11-08T07:24:43.444Z,32.50
2022-11-08T07:36:43.935Z,48.10
2022-11-08T07:48:44.365Z,39.70
2022-11-08T08:00:44.825Z,31.50
2022-11-08T08:12:45.260Z,28.00
2022-11-08T08:24:45.748Z,10.30
2022-11-08T08:36:46.192Z,6.80
2022-11-08T08:48:46.647Z,13.10
2022-11-08T09:12:47.545Z,5.10
2022-11-08T09:24:47.958Z,6.30
2022-11-08T09:36:48.471Z,4.10
2022-11-08T09:48:48.889Z,4.00
2022-11-08T10:00:49.347Z,5.80
2022-11-08T10:12:49.872Z,4.70
2022-11-08T10:24:50.274Z,4.10
2022-11-08T10:36:50.748Z,3.70
2022-11-08T10:48:51.189Z,3.10
2022-11-08T11:00:51.622Z,3.70
2022-11-08T11:12:52.102Z,3.70
2022-11-08T11:24:52.535Z,3.00
2022-11-08T11:36:52.972Z,4.30
2022-11-08T11:48:53.440Z,5.10
2022-11-08T12:00:53.929Z,3.00
2022-11-08T12:12:54.367Z,5.10
2022-11-08T12:24:54.805Z,5.90
2022-11-08T12:36:55.298Z,7.90
2022-11-08T12:48:55.771Z,7.90
2022-11-08T13:00:56.222Z,8.00
2022-11-08T13:12:56.665Z,9.00
2022-11-08T13:24:57.122Z,11.30
2022-11-08T13:36:57.597Z,14.80
2022-11-08T13:48:58.074Z,14.40
2022-11-08T14:00:58.515Z,17.10
2022-11-08T14:12:58.907Z,16.70
2022-11-08T14:24:59.407Z,17.70
2022-11-08T14:36:59.862Z,19.40
2022-11-08T14:49:00.253Z,20.10
2022-11-08T15:01:00.881Z,25.00
2022-11-08T15:13:01.214Z,21.10
2022-11-08T15:25:01.642Z,23.00
2022-11-08T15:37:02.095Z,22.80
2022-11-08T15:49:02.552Z,24.20
2022-11-08T16:01:03.083Z,25.20
2022-11-08T16:13:03.452Z,25.80
2022-11-08T16:25:03.938Z,26.50
2022-11-08T16:37:04.371Z,25.80
2022-11-08T16:49:04.845Z,30.50
2022-11-08T17:01:10.171Z,33.50
2022-11-08T17:13:05.710Z,47.60
2022-11-08T17:25:06.186Z,34.20
2022-11-08T17:37:06.689Z,59.50
2022-11-08T17:49:07.114Z,40.10
2022-11-08T18:01:07.715Z,47.50
2022-11-08T18:13:08.024Z,40.60
2022-11-08T18:25:08.460Z,51.50
2022-11-08T18:37:08.902Z,53.00
2022-11-08T18:49:09.398Z,39.70
2022-11-08T19:01:09.787Z,48.80
2022-11-08T19:13:10.292Z,43.80
2022-11-08T19:25:10.761Z,49.80
2022-11-08T19:37:11.157Z,59.10
2022-11-08T19:49:11.596Z,58.60
2022-11-08T20:01:12.265Z,72.70
2022-11-08T20:13:12.528Z,93.90
2022-11-08T20:25:12.970Z,74.80
2022-11-08T20:37:13.403Z,69.50
2022-11-08T20:49:13.905Z,69.60
2022-11-08T21:01:14.511Z,63.70
2022-11-08T21:13:14.793Z,68.20
2022-11-08T21:25:15.227Z,73.20
2022-11-08T21:37:15.711Z,76.00
2022-11-08T21:49:16.154Z,63.70
2022-11-08T22:01:16.701Z,63.50
2022-11-08T22:13:17.027Z,71.20
2022-11-08T22:25:17.521Z,64.60
2022-11-08T22:37:17.965Z,64.70
2022-11-08T22:49:18.415Z,67.70
2022-11-08T23:01:18.860Z,68.20
2022-11-08T23:13:19.683Z,62.30
2022-11-08T23:25:19.775Z,63.50
2022-11-08T23:37:20.201Z,67.80
2022-11-08T23:49:20.668Z,66.20
